Time;durP1;ratioP1;P1;durP2;ratioP2;P2;SDS_P1;SDS_P2;PMS_P1;PMS_P2;Temp;Humidity;BMP_temperature;BMP_pressure;BME280_temperature;BME280_humidity;BME280_pressure;Samples;Min_cycle;Max_cycle;Signal;HPM_P1;HPM_P2
2023/05/20 00:02:10;;;;;;;;;;;14.90;95.90;;;;;;7331683;19;110173;-67
2023/05/20 00:04:37;;;;;;;;;;;14.90;96.10;;;;;;7332037;19;111283;-65
2023/05/20 00:07:04;;;;;;;;;;;14.90;96.00;;;;;;7334390;19;110807;-65
2023/05/20 00:09:31;;;;;;;;;;;14.90;95.90;;;;;;7331712;19;110724;-65
2023/05/20 00:11:58;;;;;;;;;;;14.80;96.10;;;;;;7340296;19;112100;-64
2023/05/20 00:14:25;;;;;;;;;;;14.80;96.00;;;;;;7327759;19;111123;-65
2023/05/20 00:16:52;;;;;;;;;;;14.80;96.10;;;;;;7329999;19;111579;-65
2023/05/20 00:19:19;;;;;;;;;;;14.80;96.10;;;;;;7328472;19;109858;-65
2023/05/20 00:21:47;;;;;;;;;;;14.80;96.00;;;;;;7332412;19;110482;-65
2023/05/20 00:24:14;;;;;;;;;;;14.80;96.10;;;;;;7329817;19;111254;-65
2023/05/20 00:26:41;;;;;;;;;;;14.80;96.20;;;;;;7333727;19;111891;-65
2023/05/20 00:29:08;;;;;;;;;;;14.80;96.50;;;;;;7330801;19;109322;-65
2023/05/20 00:31:35;;;;;;;;;;;14.70;96.20;;;;;;7335983;19;111713;-65
2023/05/20 00:34:02;;;;;;;;;;;14.70;96.50;;;;;;7330038;19;110985;-65
2023/05/20 00:36:32;;;;;;;;;;;14.70;96.20;;;;;;7334082;19;110968;-65
2023/05/20 00:38:59;;;;;;;;;;;14.70;96.60;;;;;;7335682;19;109703;-65
2023/05/20 00:41:26;;;;;;;;;;;14.70;96.50;;;;;;7331867;19;110721;-65
2023/05/20 00:43:53;;;;;;;;;;;14.60;97.10;;;;;;7330630;19;110092;-65
2023/05/20 00:46:21;;;;;;;;;;;14.50;97.00;;;;;;7332938;19;110097;-65
2023/05/20 00:48:49;;;;;;;;;;;14.50;96.90;;;;;;7331770;19;110025;-65
2023/05/20 00:51:18;;;;;;;;;;;14.50;97.10;;;;;;7332292;19;110479;-67
2023/05/20 00:53:46;;;;;;;;;;;14.40;97.50;;;;;;7335810;19;109432;-65
2023/05/20 00:56:13;;;;;;;;;;;14.40;97.40;;;;;;7328684;19;111330;-65
2023/05/20 00:58:40;;;;;;;;;;;14.40;97.30;;;;;;7331022;19;111105;-65
2023/05/20 01:01:07;;;;;;;;;;;14.40;97.50;;;;;;7329659;19;110360;-65
2023/05/20 01:03:34;;;;;;;;;;;14.40;97.90;;;;;;7332256;19;110974;-65
2023/05/20 01:06:02;;;;;;;;;;;14.30;98.00;;;;;;7330450;19;109963;-65
2023/05/20 01:08:29;;;;;;;;;;;14.20;98.00;;;;;;7330741;19;110256;-65
2023/05/20 01:11:16;;;;;;;;;;;14.20;98.30;;;;;;7332164;19;110185;-65
2023/05/20 01:13:48;;;;;;;;;;;14.20;98.20;;;;;;7332499;19;109715;-61
2023/05/20 01:16:17;;;;;;;;;;;14.10;98.80;;;;;;7334442;19;109629;-64
2023/05/20 01:18:47;;;;;;;;;;;14.00;98.70;;;;;;7332392;19;109722;-65
2023/05/20 01:21:16;;;;;;;;;;;14.00;99.20;;;;;;7334299;19;109818;-65
2023/05/20 01:23:43;;;;;;;;;;;14.00;98.90;;;;;;7332484;19;111021;-66
2023/05/20 01:26:13;;;;;;;;;;;14.00;99.40;;;;;;7334111;19;110382;-65
2023/05/20 01:28:42;;;;;;;;;;;13.90;99.30;;;;;;7330680;19;109913;-65
2023/05/20 01:31:28;;;;;;;;;;;14.00;99.30;;;;;;7332164;19;114409;-65
2023/05/20 01:33:56;;;;;;;;;;;14.00;99.70;;;;;;7334558;19;109834;-65
2023/05/20 01:36:26;;;;;;;;;;;13.90;99.70;;;;;;7339045;19;110115;-70
2023/05/20 01:38:53;;;;;;;;;;;13.90;99.90;;;;;;7344193;19;111042;-65
2023/05/20 01:41:22;;;;;;;;;;;13.90;99.90;;;;;;7332434;19;111252;-65
2023/05/20 01:43:49;;;;;;;;;;;13.90;99.90;;;;;;7334753;19;110467;-65
2023/05/20 01:46:16;;;;;;;;;;;13.80;99.90;;;;;;7332569;19;110580;-66
2023/05/20 01:48:44;;;;;;;;;;;13.80;99.90;;;;;;7333528;19;111092;-66
2023/05/20 01:51:11;;;;;;;;;;;13.80;99.90;;;;;;7337226;19;111527;-63
2023/05/20 01:53:38;;;;;;;;;;;13.80;99.90;;;;;;7338635;19;109532;-64
2023/05/20 01:56:05;;;;;;;;;;;13.80;99.90;;;;;;7330779;19;109428;-67
2023/05/20 01:58:32;;;;;;;;;;;13.70;99.90;;;;;;7340772;19;110143;-65
2023/05/20 02:00:59;;;;;;;;;;;13.70;99.90;;;;;;7339105;19;110658;-65
2023/05/20 02:03:26;;;;;;;;;;;13.70;99.90;;;;;;7337924;19;110621;-65
2023/05/20 02:05:54;;;;;;;;;;;13.70;99.90;;;;;;7335054;19;112065;-65
2023/05/20 02:08:21;;;;;;;;;;;13.70;99.90;;;;;;7333097;19;110151;-65
2023/05/20 02:10:48;;;;;;;;;;;13.60;99.90;;;;;;7333706;19;110268;-64
2023/05/20 02:13:15;;;;;;;;;;;13.60;99.90;;;;;;7335356;19;109638;-65
2023/05/20 02:15:42;;;;;;;;;;;13.60;99.90;;;;;;7332227;19;109719;-64
2023/05/20 02:18:11;;;;;;;;;;;13.50;99.90;;;;;;7334361;19;111200;-64
2023/05/20 02:20:38;;;;;;;;;;;13.60;99.90;;;;;;7333511;19;109757;-65
2023/05/20 02:23:05;;;;;;;;;;;13.50;99.90;;;;;;7341414;19;111971;-64
2023/05/20 02:25:32;;;;;;;;;;;13.50;99.90;;;;;;7336320;19;112013;-64
2023/05/20 02:28:00;;;;;;;;;;;13.50;99.90;;;;;;7338972;19;110294;-64
2023/05/20 02:30:27;;;;;;;;;;;13.50;99.90;;;;;;7334039;19;110648;-65
2023/05/20 02:32:54;;;;;;;;;;;13.40;99.90;;;;;;7336133;19;110947;-64
2023/05/20 02:35:21;;;;;;;;;;;13.40;99.90;;;;;;7327862;19;110446;-65
2023/05/20 02:37:48;;;;;;;;;;;13.40;99.90;;;;;;7336545;19;111681;-64
2023/05/20 02:40:15;;;;;;;;;;;13.30;99.90;;;;;;7334033;19;109869;-65
2023/05/20 02:42:42;;;;;;;;;;;13.30;99.90;;;;;;7337308;19;109697;-64
2023/05/20 02:45:09;;;;;;;;;;;13.30;99.90;;;;;;7332526;19;110522;-65
2023/05/20 02:47:36;;;;;;;;;;;13.30;99.90;;;;;;7334355;19;109242;-64
2023/05/20 02:50:04;;;;;;;;;;;13.30;99.90;;;;;;7334109;19;109845;-65
2023/05/20 02:52:31;;;;;;;;;;;13.20;99.90;;;;;;7336052;19;109849;-63
2023/05/20 02:54:58;;;;;;;;;;;13.20;99.90;;;;;;7333154;19;111075;-65
2023/05/20 02:57:27;;;;;;;;;;;13.20;99.90;;;;;;7338620;19;113141;-65
2023/05/20 02:59:54;;;;;;;;;;;13.20;99.90;;;;;;7333760;19;110576;-64
2023/05/20 03:02:22;;;;;;;;;;;13.20;99.90;;;;;;7334446;19;113880;-64
2023/05/20 03:04:49;;;;;;;;;;;13.20;99.90;;;;;;7341283;19;111026;-65
2023/05/20 03:07:18;;;;;;;;;;;13.20;99.90;;;;;;7332418;19;110209;-64
2023/05/20 03:09:45;;;;;;;;;;;13.20;99.90;;;;;;7334702;19;110953;-65
2023/05/20 03:12:12;;;;;;;;;;;13.10;99.90;;;;;;7336544;19;110001;-64
2023/05/20 03:14:40;;;;;;;;;;;13.00;99.90;;;;;;7332067;19;111601;-64
2023/05/20 03:17:08;;;;;;;;;;;13.00;99.90;;;;;;7333183;19;111156;-64
2023/05/20 03:19:35;;;;;;;;;;;13.00;99.90;;;;;;7335961;19;109503;-65
2023/05/20 03:22:03;;;;;;;;;;;13.00;99.90;;;;;;7332000;19;110167;-65
2023/05/20 03:24:33;;;;;;;;;;;12.90;99.90;;;;;;7334530;19;111960;-64
2023/05/20 03:27:00;;;;;;;;;;;13.00;99.90;;;;;;7337615;19;110076;-65
2023/05/20 03:29:27;;;;;;;;;;;12.90;99.90;;;;;;7332234;19;110677;-65
2023/05/20 03:31:54;;;;;;;;;;;12.90;99.90;;;;;;7334589;19;110188;-65
2023/05/20 03:34:21;;;;;;;;;;;12.90;99.90;;;;;;7332156;19;110660;-65
2023/05/20 03:36:50;;;;;;;;;;;12.90;99.90;;;;;;7334944;19;110431;-65
2023/05/20 03:39:17;;;;;;;;;;;12.90;99.90;;;;;;7331396;19;110898;-65
2023/05/20 03:41:44;;;;;;;;;;;12.90;99.90;;;;;;7334271;19;109971;-64
2023/05/20 03:44:11;;;;;;;;;;;12.80;99.90;;;;;;7330821;19;111389;-65
2023/05/20 03:46:38;;;;;;;;;;;12.80;99.90;;;;;;7334184;19;111302;-65
2023/05/20 03:49:05;;;;;;;;;;;12.80;99.90;;;;;;7338306;19;112114;-65
2023/05/20 03:51:32;;;;;;;;;;;12.80;99.90;;;;;;7333261;19;109955;-64
2023/05/20 03:53:59;;;;;;;;;;;12.70;99.90;;;;;;7334368;19;109807;-64
2023/05/20 03:56:26;;;;;;;;;;;12.70;99.90;;;;;;7329845;19;111482;-65
2023/05/20 03:58:53;;;;;;;;;;;12.70;99.90;;;;;;7335024;19;109484;-65
2023/05/20 04:01:24;;;;;;;;;;;12.70;99.90;;;;;;7331724;19;109763;-65
2023/05/20 04:03:51;;;;;;;;;;;12.70;99.90;;;;;;7335663;19;110124;-65
2023/05/20 04:06:18;;;;;;;;;;;12.60;99.90;;;;;;7331275;19;110950;-65
2023/05/20 04:08:45;;;;;;;;;;;12.60;99.90;;;;;;7330648;19;110284;-65
2023/05/20 04:11:12;;;;;;;;;;;12.70;99.90;;;;;;7336993;19;111420;-64
2023/05/20 04:13:39;;;;;;;;;;;12.70;99.90;;;;;;7331082;19;109796;-64
2023/05/20 04:16:06;;;;;;;;;;;12.70;99.90;;;;;;7331068;19;110634;-65
2023/05/20 04:18:37;;;;;;;;;;;12.70;99.90;;;;;;7333250;19;109770;-64
2023/05/20 04:21:05;;;;;;;;;;;12.80;99.90;;;;;;7331224;19;109781;-64
2023/05/20 04:23:32;;;;;;;;;;;12.80;99.90;;;;;;7329000;19;111072;-65
2023/05/20 04:26:01;;;;;;;;;;;12.80;99.90;;;;;;7332629;19;111006;-65
2023/05/20 04:28:30;;;;;;;;;;;12.80;99.90;;;;;;7329681;19;109647;-65
2023/05/20 04:31:03;;;;;;;;;;;12.80;99.90;;;;;;7330990;19;110128;-65
2023/05/20 04:33:31;;;;;;;;;;;12.80;99.90;;;;;;7337309;19;109286;-65
2023/05/20 04:35:59;;;;;;;;;;;12.90;99.90;;;;;;7330486;19;110739;-65
2023/05/20 04:38:28;;;;;;;;;;;12.90;99.90;;;;;;7329971;19;110307;-65
2023/05/20 04:40:56;;;;;;;;;;;12.90;99.90;;;;;;7329087;19;109984;-65
2023/05/20 04:43:24;;;;;;;;;;;12.90;99.90;;;;;;7333012;19;111572;-65
2023/05/20 04:45:54;;;;;;;;;;;12.90;99.90;;;;;;7327777;19;109619;-65
2023/05/20 04:48:21;;;;;;;;;;;13.00;99.90;;;;;;7331167;19;110030;-65
2023/05/20 04:50:49;;;;;;;;;;;13.00;99.90;;;;;;7328898;19;111702;-65
2023/05/20 04:53:16;;;;;;;;;;;13.00;99.90;;;;;;7336550;19;109588;-65
2023/05/20 04:55:44;;;;;;;;;;;13.00;99.90;;;;;;7329892;19;110763;-65
2023/05/20 04:58:14;;;;;;;;;;;13.00;99.90;;;;;;7330269;19;110676;-65
2023/05/20 05:00:44;;;;;;;;;;;13.10;99.90;;;;;;7322144;19;110849;-65
2023/05/20 05:03:12;;;;;;;;;;;13.10;99.90;;;;;;7329795;19;110649;-65
2023/05/20 05:05:39;;;;;;;;;;;13.10;99.90;;;;;;7330242;19;110399;-65
2023/05/20 05:08:07;;;;;;;;;;;13.20;99.90;;;;;;7331897;19;110227;-65
2023/05/20 05:10:34;;;;;;;;;;;13.20;99.90;;;;;;7333728;19;110891;-65
2023/05/20 05:13:01;;;;;;;;;;;13.20;99.90;;;;;;7335188;19;109524;-65
2023/05/20 05:15:28;;;;;;;;;;;13.20;99.90;;;;;;7341181;19;111028;-65
2023/05/20 05:17:55;;;;;;;;;;;13.20;99.90;;;;;;7338491;19;109554;-65
2023/05/20 05:20:23;;;;;;;;;;;13.30;99.90;;;;;;7337059;19;109547;-65
2023/05/20 05:22:50;;;;;;;;;;;13.40;99.90;;;;;;7337819;19;110259;-65
2023/05/20 05:25:17;;;;;;;;;;;13.40;99.90;;;;;;7334304;19;110508;-66
2023/05/20 05:27:44;;;;;;;;;;;13.50;99.90;;;;;;7340152;19;109869;-65
2023/05/20 05:30:11;;;;;;;;;;;13.50;99.90;;;;;;7336457;19;111596;-65
2023/05/20 05:32:38;;;;;;;;;;;13.60;99.90;;;;;;7340282;19;109592;-65
2023/05/20 05:35:05;;;;;;;;;;;13.60;99.90;;;;;;7333174;19;111378;-66
2023/05/20 05:37:34;;;;;;;;;;;13.70;99.90;;;;;;7342128;19;111464;-64
2023/05/20 05:40:01;;;;;;;;;;;13.70;99.90;;;;;;7337000;19;109763;-65
2023/05/20 05:42:28;;;;;;;;;;;13.80;99.90;;;;;;7336175;19;110201;-65
2023/05/20 05:44:55;;;;;;;;;;;13.90;99.90;;;;;;7331683;19;111140;-65
2023/05/20 05:47:22;;;;;;;;;;;13.90;99.90;;;;;;7338927;19;109668;-65
2023/05/20 05:49:49;;;;;;;;;;;14.00;99.90;;;;;;7336622;19;110046;-66
2023/05/20 05:52:16;;;;;;;;;;;14.00;99.90;;;;;;7336158;19;109739;-66
2023/05/20 05:54:43;;;;;;;;;;;14.10;99.90;;;;;;7333648;19;109729;-66
2023/05/20 05:57:10;;;;;;;;;;;14.20;99.90;;;;;;7337460;19;110127;-65
2023/05/20 05:59:37;;;;;;;;;;;14.20;99.90;;;;;;7340614;19;110777;-66
2023/05/20 06:02:04;;;;;;;;;;;14.30;99.90;;;;;;7334418;19;110103;-66
2023/05/20 06:04:31;;;;;;;;;;;14.30;99.90;;;;;;7335031;19;109771;-66
2023/05/20 06:06:58;;;;;;;;;;;14.40;99.90;;;;;;7339001;19;109562;-65
2023/05/20 06:09:26;;;;;;;;;;;14.50;99.90;;;;;;7336941;19;111357;-65
2023/05/20 06:11:53;;;;;;;;;;;14.60;99.90;;;;;;7336008;19;111481;-65
2023/05/20 06:14:20;;;;;;;;;;;14.60;99.90;;;;;;7334072;19;110386;-66
2023/05/20 06:16:47;;;;;;;;;;;14.70;99.90;;;;;;7335117;19;111103;-66
2023/05/20 06:19:14;;;;;;;;;;;14.80;99.90;;;;;;7329185;19;111885;-66
2023/05/20 06:21:41;;;;;;;;;;;14.80;99.90;;;;;;7341727;19;109851;-66
2023/05/20 06:24:09;;;;;;;;;;;14.80;99.90;;;;;;7334419;19;109782;-66
2023/05/20 06:26:36;;;;;;;;;;;14.80;99.90;;;;;;7333795;19;110098;-66
2023/05/20 06:29:03;;;;;;;;;;;14.90;99.90;;;;;;7334681;19;110646;-65
2023/05/20 06:31:30;;;;;;;;;;;15.00;99.90;;;;;;7334871;19;109467;-66
2023/05/20 06:33:57;;;;;;;;;;;15.10;99.90;;;;;;7333289;19;112139;-66
2023/05/20 06:36:25;;;;;;;;;;;15.20;99.90;;;;;;7331852;19;113909;-65
2023/05/20 06:38:52;;;;;;;;;;;15.30;99.90;;;;;;7338302;19;110263;-66
2023/05/20 06:41:21;;;;;;;;;;;15.40;99.90;;;;;;7336202;19;110267;-66
2023/05/20 06:43:48;;;;;;;;;;;15.50;99.90;;;;;;7338111;19;111473;-65
2023/05/20 06:46:18;;;;;;;;;;;15.60;99.90;;;;;;7334438;19;109973;-66
2023/05/20 06:48:46;;;;;;;;;;;15.70;99.90;;;;;;7332870;19;110172;-66
2023/05/20 06:51:13;;;;;;;;;;;15.80;99.90;;;;;;7336026;19;110221;-66
2023/05/20 06:53:39;;;;;;;;;;;15.90;99.90;;;;;;7337856;19;110660;-66
2023/05/20 06:56:07;;;;;;;;;;;15.90;99.90;;;;;;7334821;19;110137;-65
2023/05/20 06:58:34;;;;;;;;;;;16.00;99.90;;;;;;7334591;19;114244;-66
2023/05/20 07:01:01;;;;;;;;;;;16.10;99.90;;;;;;7337622;19;109440;-66
2023/05/20 07:03:28;;;;;;;;;;;16.20;99.90;;;;;;7338261;19;111183;-65
2023/05/20 07:05:55;;;;;;;;;;;16.30;99.90;;;;;;7336842;19;110434;-66
2023/05/20 07:08:22;;;;;;;;;;;16.40;99.90;;;;;;7331207;19;112536;-65
2023/05/20 07:10:49;;;;;;;;;;;16.40;99.90;;;;;;7336529;19;111764;-66
2023/05/20 07:13:17;;;;;;;;;;;16.50;99.90;;;;;;7334581;19;110689;-66
2023/05/20 07:15:47;;;;;;;;;;;16.50;99.90;;;;;;7335487;19;111114;-66
2023/05/20 07:18:14;;;;;;;;;;;16.60;99.90;;;;;;7335621;19;109685;-66
2023/05/20 07:20:43;;;;;;;;;;;16.70;99.90;;;;;;7332216;19;110785;-66
2023/05/20 07:23:10;;;;;;;;;;;16.80;99.90;;;;;;7334694;19;110677;-66
2023/05/20 07:25:38;;;;;;;;;;;16.90;99.90;;;;;;7341300;19;109517;-67
2023/05/20 07:28:06;;;;;;;;;;;17.00;99.90;;;;;;7332721;19;110895;-67
2023/05/20 07:30:33;;;;;;;;;;;17.00;99.90;;;;;;7332990;19;109611;-65
2023/05/20 07:33:00;;;;;;;;;;;17.10;99.90;;;;;;7334721;19;110063;-64
2023/05/20 07:35:27;;;;;;;;;;;17.10;99.90;;;;;;7332775;19;110895;-67
2023/05/20 07:37:54;;;;;;;;;;;17.20;99.90;;;;;;7338334;19;110609;-67
2023/05/20 07:40:21;;;;;;;;;;;17.20;99.90;;;;;;7335022;19;109638;-66
2023/05/20 07:42:48;;;;;;;;;;;17.30;99.90;;;;;;7333635;19;110171;-66
2023/05/20 07:45:15;;;;;;;;;;;17.30;99.90;;;;;;7334404;19;110642;-65
2023/05/20 07:47:42;;;;;;;;;;;17.40;99.90;;;;;;7342394;19;112561;-64
2023/05/20 07:50:10;;;;;;;;;;;17.30;99.90;;;;;;7334515;19;112300;-63
2023/05/20 07:52:37;;;;;;;;;;;17.30;99.90;;;;;;7336528;19;109742;-69
2023/05/20 07:55:07;;;;;;;;;;;17.40;99.90;;;;;;7331170;19;110337;-60
2023/05/20 07:57:34;;;;;;;;;;;17.50;99.90;;;;;;7332055;19;113823;-63
2023/05/20 08:00:01;;;;;;;;;;;17.50;99.90;;;;;;7333241;19;110121;-62
2023/05/20 08:02:29;;;;;;;;;;;17.50;99.90;;;;;;7325682;19;111163;-63
2023/05/20 08:04:56;;;;;;;;;;;17.60;99.90;;;;;;7330494;19;109928;-66
2023/05/20 08:07:23;;;;;;;;;;;17.60;99.90;;;;;;7330580;19;110524;-65
2023/05/20 08:09:50;;;;;;;;;;;17.60;99.90;;;;;;7337995;19;111138;-60
2023/05/20 08:12:18;;;;;;;;;;;17.60;99.90;;;;;;7332578;19;110210;-60
2023/05/20 08:14:45;;;;;;;;;;;17.80;99.90;;;;;;7332028;19;110812;-60
2023/05/20 08:17:12;;;;;;;;;;;18.00;99.90;;;;;;7326727;19;109975;-59
2023/05/20 08:19:40;;;;;;;;;;;18.20;99.90;;;;;;7334946;19;109558;-64
2023/05/20 08:22:07;;;;;;;;;;;18.20;99.90;;;;;;7332781;19;110714;-61
2023/05/20 08:24:35;;;;;;;;;;;18.20;99.90;;;;;;7332930;19;114566;-58
2023/05/20 08:27:02;;;;;;;;;;;18.20;99.90;;;;;;7332735;19;110290;-66
2023/05/20 08:29:29;;;;;;;;;;;18.30;99.90;;;;;;7332711;19;110264;-64
2023/05/20 08:31:56;;;;;;;;;;;18.30;99.90;;;;;;7337488;19;109863;-64
2023/05/20 08:34:23;;;;;;;;;;;18.40;99.90;;;;;;7333206;19;111203;-65
2023/05/20 08:36:50;;;;;;;;;;;18.40;99.90;;;;;;7334740;19;109484;-62
2023/05/20 08:39:17;;;;;;;;;;;18.40;99.40;;;;;;7332441;19;110012;-64
2023/05/20 08:41:46;;;;;;;;;;;18.40;99.80;;;;;;7332866;19;110120;-69
2023/05/20 08:44:13;;;;;;;;;;;18.50;99.90;;;;;;7334567;19;110125;-64
2023/05/20 08:46:40;;;;;;;;;;;18.60;99.90;;;;;;7332760;19;110195;-61
2023/05/20 08:49:07;;;;;;;;;;;18.70;99.00;;;;;;7332222;19;110114;-63
2023/05/20 08:51:35;;;;;;;;;;;18.70;99.10;;;;;;7336602;19;110029;-62
2023/05/20 08:54:02;;;;;;;;;;;18.70;98.90;;;;;;7332182;19;110658;-65
2023/05/20 08:56:30;;;;;;;;;;;18.70;99.00;;;;;;7332390;19;110210;-63
2023/05/20 08:58:57;;;;;;;;;;;18.80;99.10;;;;;;7331360;19;111893;-60
2023/05/20 09:01:24;;;;;;;;;;;19.00;99.60;;;;;;7331204;19;116286;-59
2023/05/20 09:03:51;;;;;;;;;;;19.00;99.40;;;;;;7331967;19;109681;-61
2023/05/20 09:06:19;;;;;;;;;;;19.20;99.30;;;;;;7328968;19;110343;-60
2023/05/20 09:08:52;;;;;;;;;;;19.30;99.90;;;;;;7330480;19;110225;-60
2023/05/20 09:11:21;;;;;;;;;;;19.50;99.30;;;;;;7328285;19;110993;-60
2023/05/20 09:13:49;;;;;;;;;;;19.50;97.90;;;;;;7334487;19;109584;-58
2023/05/20 09:16:16;;;;;;;;;;;19.30;97.40;;;;;;7330283;19;112486;-58
2023/05/20 09:18:43;;;;;;;;;;;19.30;97.80;;;;;;7331417;19;110426;-58
2023/05/20 09:21:10;;;;;;;;;;;19.20;97.70;;;;;;7329910;19;111157;-59
2023/05/20 09:23:37;;;;;;;;;;;19.20;98.30;;;;;;7330497;19;109733;-57
2023/05/20 09:26:04;;;;;;;;;;;19.20;97.70;;;;;;7331989;19;109930;-58
2023/05/20 09:28:32;;;;;;;;;;;19.20;98.00;;;;;;7330448;19;113299;-57
2023/05/20 09:30:59;;;;;;;;;;;19.20;97.20;;;;;;7330847;19;113128;-57
2023/05/20 09:33:28;;;;;;;;;;;19.20;98.40;;;;;;7332624;19;109591;-58
2023/05/20 09:36:08;;;;;;;;;;;19.30;98.50;;;;;;7335163;19;110307;-57
2023/05/20 09:38:39;;;;;;;;;;;19.40;98.70;;;;;;7331721;19;109963;-60
2023/05/20 09:41:10;;;;;;;;;;;19.50;97.40;;;;;;7329424;19;109868;-58
2023/05/20 09:43:40;;;;;;;;;;;19.40;97.50;;;;;;7324263;19;110164;-58
2023/05/20 09:46:07;;;;;;;;;;;19.30;96.80;;;;;;7326253;19;111302;-59
2023/05/20 09:48:38;;;;;;;;;;;19.40;97.00;;;;;;7319015;19;111709;-59
2023/05/20 09:51:05;;;;;;;;;;;19.40;97.40;;;;;;7328657;19;110636;-58
2023/05/20 09:53:33;;;;;;;;;;;19.60;97.30;;;;;;7331699;19;109697;-58
2023/05/20 09:56:00;;;;;;;;;;;19.60;96.90;;;;;;7333474;19;109969;-60
2023/05/20 09:58:28;;;;;;;;;;;19.60;98.10;;;;;;7344836;19;109451;-59
2023/05/20 10:00:56;;;;;;;;;;;19.90;98.50;;;;;;7330514;19;110463;-58
2023/05/20 10:03:26;;;;;;;;;;;20.10;96.80;;;;;;7337673;19;111135;-59
2023/05/20 10:06:01;;;;;;;;;;;20.00;96.40;;;;;;7337849;19;110657;-59
2023/05/20 10:08:37;;;;;;;;;;;20.00;96.50;;;;;;7335232;19;110522;-59
2023/05/20 10:11:15;;;;;;;;;;;20.00;96.40;;;;;;7338134;19;109856;-59
2023/05/20 10:13:42;;;;;;;;;;;20.00;95.90;;;;;;7333517;19;113349;-59
2023/05/20 10:16:19;;;;;;;;;;;20.00;95.10;;;;;;7333853;19;110547;-59
2023/05/20 10:18:49;;;;;;;;;;;20.00;96.40;;;;;;7337646;19;109570;-60
2023/05/20 10:21:17;;;;;;;;;;;20.10;95.80;;;;;;7339733;19;111302;-59
2023/05/20 10:23:44;;;;;;;;;;;20.10;95.30;;;;;;7339209;19;113976;-59
2023/05/20 10:26:12;;;;;;;;;;;20.10;95.80;;;;;;7337107;19;109639;-58
2023/05/20 10:28:39;;;;;;;;;;;20.20;96.90;;;;;;7334242;19;111131;-59
2023/05/20 10:31:17;;;;;;;;;;;20.30;96.00;;;;;;7336983;19;109790;-58
2023/05/20 10:33:44;;;;;;;;;;;20.40;95.60;;;;;;7331327;19;109577;-60
2023/05/20 10:36:22;;;;;;;;;;;20.40;94.90;;;;;;7336240;19;110414;-60
2023/05/20 10:38:55;;;;;;;;;;;20.30;95.00;;;;;;7338540;19;110410;-60
2023/05/20 10:41:23;;;;;;;;;;;20.30;95.50;;;;;;7328698;19;112084;-60
2023/05/20 10:44:03;;;;;;;;;;;20.40;95.60;;;;;;7339094;19;110705;-59
2023/05/20 10:46:31;;;;;;;;;;;20.40;95.30;;;;;;7336504;19;109513;-61
2023/05/20 10:49:19;;;;;;;;;;;20.50;96.00;;;;;;7336484;19;113345;-69
2023/05/20 10:51:50;;;;;;;;;;;20.60;96.80;;;;;;7335754;19;110085;-60
2023/05/20 10:54:17;;;;;;;;;;;20.60;95.30;;;;;;7337243;19;110912;-59
2023/05/20 10:56:52;;;;;;;;;;;20.50;94.60;;;;;;7337162;19;110097;-60
2023/05/20 10:59:20;;;;;;;;;;;20.50;96.30;;;;;;7337638;19;110457;-62
2023/05/20 11:01:47;;;;;;;;;;;20.70;95.60;;;;;;7337064;19;110927;-61
2023/05/20 11:04:15;;;;;;;;;;;20.80;95.60;;;;;;7340599;19;110137;-60
2023/05/20 11:06:52;;;;;;;;;;;20.90;96.10;;;;;;7331427;19;111656;-61
2023/05/20 11:09:20;;;;;;;;;;;20.90;95.40;;;;;;7334647;19;111389;-59
2023/05/20 11:11:48;;;;;;;;;;;20.80;95.30;;;;;;7337234;19;111922;-63
2023/05/20 11:14:17;;;;;;;;;;;20.70;95.50;;;;;;7335705;19;109764;-63
2023/05/20 11:16:44;;;;;;;;;;;20.80;96.10;;;;;;7335070;19;110310;-62
2023/05/20 11:19:15;;;;;;;;;;;20.90;95.80;;;;;;7335560;19;109394;-67
2023/05/20 11:21:46;;;;;;;;;;;20.90;95.60;;;;;;7329617;19;111256;-67
2023/05/20 11:24:13;;;;;;;;;;;21.00;96.50;;;;;;7334985;19;110090;-67
2023/05/20 11:26:40;;;;;;;;;;;21.10;96.40;;;;;;7341991;19;109404;-62
2023/05/20 11:29:07;;;;;;;;;;;21.10;96.20;;;;;;7334374;19;110781;-58
2023/05/20 11:31:36;;;;;;;;;;;21.10;95.70;;;;;;7336126;19;111190;-62
2023/05/20 11:34:03;;;;;;;;;;;21.00;95.70;;;;;;7331218;19;111840;-58
2023/05/20 11:36:31;;;;;;;;;;;21.00;95.90;;;;;;7336874;19;112419;-60
2023/05/20 11:38:58;;;;;;;;;;;21.10;97.00;;;;;;7341191;19;109589;-59
2023/05/20 11:41:26;;;;;;;;;;;21.40;97.30;;;;;;7337994;19;109543;-57
2023/05/20 11:43:59;;;;;;;;;;;21.60;96.30;;;;;;7336324;19;110075;-58
2023/05/20 11:46:27;;;;;;;;;;;21.60;96.10;;;;;;7337150;19;110721;-59
2023/05/20 11:48:54;;;;;;;;;;;21.40;95.60;;;;;;7340186;19;110978;-58
2023/05/20 11:51:28;;;;;;;;;;;21.50;96.70;;;;;;7330255;19;111328;-61
2023/05/20 11:53:59;;;;;;;;;;;21.70;96.50;;;;;;7335823;19;109987;-59
2023/05/20 11:56:27;;;;;;;;;;;22.10;97.20;;;;;;7332442;19;111037;-58
2023/05/20 11:58:56;;;;;;;;;;;22.30;95.80;;;;;;7334967;19;110235;-59
2023/05/20 12:01:23;;;;;;;;;;;22.50;95.50;;;;;;7335367;19;109996;-62
2023/05/20 12:03:50;;;;;;;;;;;22.50;94.60;;;;;;7334026;19;111430;-59
2023/05/20 12:06:18;;;;;;;;;;;22.50;94.80;;;;;;7332082;19;110217;-63
2023/05/20 12:08:46;;;;;;;;;;;22.50;94.20;;;;;;7331997;19;112189;-60
2023/05/20 12:11:13;;;;;;;;;;;22.10;94.00;;;;;;7340372;19;110284;-60
2023/05/20 12:13:40;;;;;;;;;;;22.10;94.90;;;;;;7333116;19;109416;-59
2023/05/20 12:16:07;;;;;;;;;;;22.40;95.40;;;;;;7333833;19;111161;-59
2023/05/20 12:18:34;;;;;;;;;;;22.70;94.60;;;;;;7332259;19;113799;-59
2023/05/20 12:21:01;;;;;;;;;;;22.90;94.60;;;;;;7329717;19;111351;-60
2023/05/20 12:23:32;;;;;;;;;;;23.10;93.30;;;;;;7335690;19;109938;-62
2023/05/20 12:26:00;;;;;;;;;;;23.30;94.30;;;;;;7332338;19;109556;-65
2023/05/20 12:28:27;;;;;;;;;;;23.40;94.00;;;;;;7334400;19;109865;-64
2023/05/20 12:30:54;;;;;;;;;;;23.40;92.30;;;;;;7332476;19;110154;-64
2023/05/20 12:33:21;;;;;;;;;;;23.20;93.30;;;;;;7338289;19;109844;-65
2023/05/20 12:35:49;;;;;;;;;;;23.20;92.70;;;;;;7329235;19;112386;-61
2023/05/20 12:38:16;;;;;;;;;;;23.30;94.40;;;;;;7334874;19;109684;-62
2023/05/20 12:40:43;;;;;;;;;;;23.40;92.70;;;;;;7332671;19;111260;-60
2023/05/20 12:43:10;;;;;;;;;;;23.60;93.60;;;;;;7332654;19;110960;-61
2023/05/20 12:45:37;;;;;;;;;;;23.60;93.10;;;;;;7333661;19;109335;-59
2023/05/20 12:48:06;;;;;;;;;;;23.50;92.40;;;;;;7331147;19;111579;-59
2023/05/20 12:50:33;;;;;;;;;;;23.40;92.50;;;;;;7330663;19;110395;-61
2023/05/20 12:53:01;;;;;;;;;;;23.50;93.50;;;;;;7331893;19;110084;-60
2023/05/20 12:55:28;;;;;;;;;;;23.40;92.80;;;;;;7338280;19;110036;-61
2023/05/20 12:57:55;;;;;;;;;;;23.40;92.90;;;;;;7333834;19;109351;-61
2023/05/20 13:00:22;;;;;;;;;;;23.30;92.10;;;;;;7331192;19;110116;-61
2023/05/20 13:02:51;;;;;;;;;;;23.20;92.60;;;;;;7332020;19;110467;-61
2023/05/20 13:05:19;;;;;;;;;;;22.90;92.60;;;;;;7330544;19;109681;-61
2023/05/20 13:07:47;;;;;;;;;;;23.00;92.90;;;;;;7334478;19;110117;-61
2023/05/20 13:10:16;;;;;;;;;;;23.00;93.40;;;;;;7328468;19;110240;-61
2023/05/20 13:12:45;;;;;;;;;;;23.20;93.40;;;;;;7330088;19;112263;-61
2023/05/20 13:15:13;;;;;;;;;;;23.40;94.30;;;;;;7336142;19;110605;-61
2023/05/20 13:17:41;;;;;;;;;;;23.80;94.20;;;;;;7332748;19;110503;-62
2023/05/20 13:20:09;;;;;;;;;;;23.90;92.60;;;;;;7330565;19;110418;-62
2023/05/20 13:22:37;;;;;;;;;;;23.90;92.90;;;;;;7328183;19;110951;-62
2023/05/20 13:25:04;;;;;;;;;;;24.10;92.80;;;;;;7329843;19;109779;-61
2023/05/20 13:27:31;;;;;;;;;;;23.90;92.00;;;;;;7333675;19;109868;-61
2023/05/20 13:30:00;;;;;;;;;;;23.70;92.30;;;;;;7338191;19;110141;-61
2023/05/20 13:32:27;;;;;;;;;;;23.70;92.60;;;;;;7341167;19;109356;-61
2023/05/20 13:34:55;;;;;;;;;;;24.00;93.60;;;;;;7340570;19;111159;-62
2023/05/20 13:37:23;;;;;;;;;;;24.10;91.90;;;;;;7342199;19;112555;-61
2023/05/20 13:39:50;;;;;;;;;;;24.30;91.40;;;;;;7339764;19;109954;-61
2023/05/20 13:42:17;;;;;;;;;;;24.10;91.50;;;;;;7338009;19;111124;-61
2023/05/20 13:44:44;;;;;;;;;;;24.30;92.90;;;;;;7340297;19;113462;-61
2023/05/20 13:47:11;;;;;;;;;;;24.40;91.50;;;;;;7338788;19;110048;-61
2023/05/20 13:49:38;;;;;;;;;;;24.50;92.80;;;;;;7338956;19;110404;-62
2023/05/20 13:52:06;;;;;;;;;;;24.80;91.00;;;;;;7338461;19;109382;-62
2023/05/20 13:54:34;;;;;;;;;;;24.90;92.10;;;;;;7340057;19;109832;-62
2023/05/20 13:57:03;;;;;;;;;;;25.00;92.00;;;;;;7338277;19;111983;-61
2023/05/20 13:59:30;;;;;;;;;;;25.40;91.70;;;;;;7346795;19;111166;-63
2023/05/20 14:01:57;;;;;;;;;;;25.50;92.00;;;;;;7337755;19;111573;-62
2023/05/20 14:04:25;;;;;;;;;;;25.50;90.80;;;;;;7339908;19;109803;-61
2023/05/20 14:06:52;;;;;;;;;;;25.40;90.20;;;;;;7341000;19;110491;-61
2023/05/20 14:09:19;;;;;;;;;;;25.20;90.40;;;;;;7337523;19;113186;-62